Time;durP1;ratioP1;P1;durP2;ratioP2;P2;SDS_P1;SDS_P2;PMS_P1;PMS_P2;Temp;Humidity;BMP_temperature;BMP_pressure;BME280_temperature;BME280_humidity;BME280_pressure;Samples;Min_cycle;Max_cycle;Signal;HPM_P1;HPM_P2
2022/08/02 00:00:46;;;;;;;0.03;0.03;;;9.30;99.90;;;;;;4994836;28;20088;-74
2022/08/02 00:03:11;;;;;;;3.25;0.52;;;9.40;99.90;;;;;;4994262;28;20046;-74
2022/08/02 00:05:37;;;;;;;0.00;0.00;;;9.40;99.90;;;;;;4995461;28;20437;-73
2022/08/02 00:08:03;;;;;;;0.00;0.00;;;9.50;99.90;;;;;;4995189;28;20050;-74
2022/08/02 00:10:28;;;;;;;0.25;0.25;;;9.50;99.90;;;;;;4995270;28;20452;-74
2022/08/02 00:12:54;;;;;;;0.40;0.38;;;9.60;99.90;;;;;;4995347;28;20046;-74
2022/08/02 00:15:20;;;;;;;0.00;0.00;;;9.60;99.90;;;;;;4995499;28;20038;-74
2022/08/02 00:17:45;;;;;;;0.00;0.00;;;9.50;99.90;;;;;;4995155;28;20050;-74
2022/08/02 00:20:12;;;;;;;0.00;0.00;;;9.60;99.90;;;;;;4995352;28;20386;-74
2022/08/02 00:22:38;;;;;;;0.13;0.10;;;9.60;99.90;;;;;;4994911;28;20097;-74
2022/08/02 00:25:04;;;;;;;0.08;0.08;;;9.70;99.90;;;;;;4994833;28;20092;-74
2022/08/02 00:27:29;;;;;;;0.00;0.00;;;9.70;99.90;;;;;;4993768;28;20050;-74
2022/08/02 00:29:55;;;;;;;1.23;0.60;;;9.70;99.90;;;;;;4994671;28;20050;-74
2022/08/02 00:32:22;;;;;;;0.40;0.40;;;9.70;99.90;;;;;;4995140;28;20129;-74
2022/08/02 00:34:48;;;;;;;0.32;0.17;;;9.60;99.90;;;;;;4995182;28;20056;-74
2022/08/02 00:37:13;;;;;;;0.00;0.00;;;9.70;99.90;;;;;;4995059;28;20552;-74
2022/08/02 00:39:41;;;;;;;0.00;0.00;;;9.60;99.90;;;;;;4994849;28;20490;-74
2022/08/02 00:42:06;;;;;;;0.00;0.00;;;9.60;99.90;;;;;;4994722;28;20093;-74
2022/08/02 00:44:32;;;;;;;0.25;0.25;;;9.50;99.90;;;;;;4995123;28;20528;-74
2022/08/02 00:46:58;;;;;;;0.13;0.13;;;9.50;99.90;;;;;;4994680;28;20473;-74
2022/08/02 00:49:23;;;;;;;0.00;0.00;;;9.40;99.90;;;;;;4994589;28;20509;-74
2022/08/02 00:51:49;;;;;;;0.00;0.00;;;9.40;99.90;;;;;;4994668;28;20039;-74
2022/08/02 00:54:14;;;;;;;0.00;0.00;;;9.30;99.90;;;;;;4994573;28;20046;-74
2022/08/02 00:56:40;;;;;;;0.00;0.00;;;9.20;99.90;;;;;;4994483;28;20042;-74
2022/08/02 00:59:05;;;;;;;0.13;0.13;;;9.10;99.90;;;;;;4994436;28;20052;-74
2022/08/02 01:01:37;;;;;;;0.00;0.00;;;9.00;99.90;;;;;;4994207;28;20485;-74
2022/08/02 01:04:11;;;;;;;0.00;0.00;;;9.10;99.90;;;;;;4994210;28;20050;-74
2022/08/02 01:06:38;;;;;;;0.08;0.08;;;9.10;99.90;;;;;;4994492;28;20038;-73
2022/08/02 01:09:05;;;;;;;0.00;0.00;;;9.00;99.90;;;;;;4994221;28;20054;-74
2022/08/02 01:11:32;;;;;;;0.10;0.10;;;8.90;99.90;;;;;;4994224;28;20122;-73
2022/08/02 01:14:09;;;;;;;0.03;0.03;;;8.80;99.90;;;;;;4993640;28;20461;-74
2022/08/02 01:16:41;;;;;;;0.00;0.00;;;8.80;99.90;;;;;;4994200;28;20050;-74
2022/08/02 01:19:34;;;;;;;0.00;0.00;;;8.70;99.90;;;;;;4992695;28;20129;-74
2022/08/02 01:22:20;;;;;;;0.00;0.00;;;8.80;99.90;;;;;;4975074;28;20066;-74
2022/08/02 01:24:58;;;;;;;0.00;0.00;;;8.80;99.90;;;;;;4994258;28;20042;-74
2022/08/02 01:27:32;;;;;;;0.85;0.22;;;8.80;99.90;;;;;;4993964;28;20109;-74
2022/08/02 01:30:00;;;;;;;0.00;0.00;;;8.80;99.90;;;;;;4993994;28;20671;-74
2022/08/02 01:32:32;;;;;;;0.00;0.00;;;8.80;99.90;;;;;;4993865;28;20050;-74
2022/08/02 01:35:12;;;;;;;0.00;0.00;;;8.80;99.90;;;;;;4994105;28;20058;-74
2022/08/02 01:37:55;;;;;;;0.75;0.35;;;8.80;99.90;;;;;;4994130;28;20058;-74
2022/08/02 01:40:26;;;;;;;0.08;0.08;;;8.80;99.90;;;;;;4993946;28;20105;-74
2022/08/02 01:42:54;;;;;;;0.00;0.00;;;9.00;99.90;;;;;;4993527;28;20042;-74
2022/08/02 01:45:23;;;;;;;0.10;0.10;;;9.00;99.90;;;;;;4992658;28;20042;-74
2022/08/02 01:47:50;;;;;;;0.00;0.00;;;8.90;99.90;;;;;;4993898;28;20092;-73
2022/08/02 01:50:20;;;;;;;0.00;0.00;;;8.90;99.90;;;;;;4993514;28;20504;-74
2022/08/02 01:52:51;;;;;;;2.72;0.50;;;8.90;99.90;;;;;;4993695;28;20101;-73
2022/08/02 01:55:28;;;;;;;0.00;0.00;;;8.90;99.90;;;;;;4993459;28;20049;-75
2022/08/02 01:58:16;;;;;;;0.00;0.00;;;8.90;99.90;;;;;;4992468;28;20061;-74
2022/08/02 02:00:43;;;;;;;1.88;0.40;;;8.90;99.90;;;;;;4993629;28;20070;-74
2022/08/02 02:03:22;;;;;;;0.20;0.20;;;9.10;99.90;;;;;;4993200;28;20042;-74
2022/08/02 02:05:50;;;;;;;0.00;0.00;;;9.10;99.90;;;;;;4993561;28;20512;-74
2022/08/02 02:08:21;;;;;;;0.17;0.10;;;9.20;99.90;;;;;;4993682;28;20409;-74
2022/08/02 02:10:46;;;;;;;0.00;0.00;;;9.30;99.90;;;;;;4993688;28;20046;-74
2022/08/02 02:13:15;;;;;;;0.00;0.00;;;9.20;99.90;;;;;;4993409;28;20649;-74
2022/08/02 02:15:45;;;;;;;0.00;0.00;;;9.20;99.90;;;;;;4993570;28;20038;-74
2022/08/02 02:18:20;;;;;;;0.00;0.00;;;9.20;99.90;;;;;;4993400;28;20042;-74
2022/08/02 02:20:46;;;;;;;0.08;0.03;;;9.20;99.90;;;;;;4994099;28;20425;-74
2022/08/02 02:23:12;;;;;;;0.28;0.20;;;9.30;99.90;;;;;;4993480;28;20050;-74
2022/08/02 02:25:40;;;;;;;0.03;0.03;;;9.20;99.90;;;;;;4995561;28;20121;-74
2022/08/02 02:28:11;;;;;;;0.00;0.00;;;9.30;99.90;;;;;;4997552;28;20042;-74
2022/08/02 02:30:40;;;;;;;0.22;0.20;;;9.40;99.90;;;;;;4997596;28;20069;-73
2022/08/02 02:33:08;;;;;;;0.65;0.60;;;9.50;99.90;;;;;;4997094;28;20053;-74
2022/08/02 02:35:35;;;;;;;0.13;0.10;;;9.70;99.90;;;;;;4997255;28;20100;-74
2022/08/02 02:38:03;;;;;;;0.05;0.05;;;9.70;99.90;;;;;;4996974;28;20428;-74
2022/08/02 02:40:30;;;;;;;0.00;0.00;;;9.80;99.90;;;;;;4997262;28;20042;-74
2022/08/02 02:42:58;;;;;;;0.25;0.25;;;9.80;99.90;;;;;;4997173;28;20046;-74
2022/08/02 02:45:24;;;;;;;4.75;1.85;;;9.80;99.90;;;;;;4996918;28;20452;-74
2022/08/02 02:47:52;;;;;;;0.00;0.00;;;9.80;99.90;;;;;;4995552;28;20042;-74
2022/08/02 02:50:18;;;;;;;0.90;0.63;;;9.80;99.90;;;;;;4997122;28;20374;-74
2022/08/02 02:52:46;;;;;;;0.05;0.05;;;9.80;99.90;;;;;;4997025;28;20053;-74
2022/08/02 02:55:12;;;;;;;1.52;0.32;;;9.80;99.90;;;;;;4997051;28;20046;-74
2022/08/02 02:57:39;;;;;;;0.05;0.05;;;10.00;99.90;;;;;;4996861;28;20078;-74
2022/08/02 03:00:14;;;;;;;0.00;0.00;;;10.00;99.90;;;;;;4996767;28;20153;-74
2022/08/02 03:02:42;;;;;;;1.45;1.05;;;10.00;99.90;;;;;;4996691;28;20070;-74
2022/08/02 03:05:10;;;;;;;0.28;0.28;;;10.00;99.90;;;;;;4996597;28;20081;-74
2022/08/02 03:07:37;;;;;;;0.00;0.00;;;10.10;99.90;;;;;;4996676;28;20077;-74
2022/08/02 03:10:05;;;;;;;0.30;0.30;;;10.00;99.90;;;;;;4996539;28;20053;-74
2022/08/02 03:12:30;;;;;;;0.00;0.00;;;10.00;99.90;;;;;;4995388;28;20042;-74
2022/08/02 03:15:15;;;;;;;0.20;0.20;;;10.00;99.90;;;;;;4996817;28;20181;-73
2022/08/02 03:17:43;;;;;;;0.13;0.13;;;10.10;99.90;;;;;;4996523;28;20061;-74
2022/08/02 03:20:13;;;;;;;1.52;0.50;;;10.20;99.90;;;;;;4996334;28;20492;-74
2022/08/02 03:22:39;;;;;;;0.47;0.40;;;10.20;99.90;;;;;;4996584;28;20050;-74
2022/08/02 03:25:06;;;;;;;1.35;0.30;;;10.20;99.90;;;;;;4996169;28;20404;-74
2022/08/02 03:27:32;;;;;;;4.20;0.25;;;10.20;99.90;;;;;;4996233;28;20053;-74
2022/08/02 03:29:57;;;;;;;0.00;0.00;;;10.10;99.90;;;;;;4995203;28;20397;-74
2022/08/02 03:32:23;;;;;;;0.10;0.10;;;10.10;99.90;;;;;;4995196;28;20053;-74
2022/08/02 03:34:49;;;;;;;0.20;0.20;;;10.20;99.90;;;;;;4995134;28;20054;-74
2022/08/02 03:37:15;;;;;;;1.85;1.15;;;10.20;99.90;;;;;;4994796;28;20444;-74
2022/08/02 03:39:40;;;;;;;0.00;0.00;;;10.30;99.90;;;;;;4994927;28;20043;-74
2022/08/02 03:42:07;;;;;;;0.13;0.13;;;10.30;99.90;;;;;;4995137;28;20042;-74
2022/08/02 03:44:34;;;;;;;0.32;0.30;;;10.30;99.90;;;;;;4994836;28;20053;-74
2022/08/02 03:47:00;;;;;;;0.00;0.00;;;10.20;99.90;;;;;;4994705;28;20030;-74
2022/08/02 03:49:27;;;;;;;0.17;0.17;;;10.30;99.90;;;;;;4994628;28;20053;-74
2022/08/02 03:51:54;;;;;;;0.10;0.10;;;10.20;99.90;;;;;;4994672;28;20117;-74
2022/08/02 03:54:20;;;;;;;0.13;0.13;;;10.20;99.90;;;;;;4994643;28;20042;-74
2022/08/02 03:56:46;;;;;;;0.22;0.22;;;10.10;99.90;;;;;;4994735;28;20057;-74
2022/08/02 03:59:13;;;;;;;0.08;0.08;;;10.10;99.90;;;;;;4993257;28;20046;-74
2022/08/02 04:01:40;;;;;;;0.08;0.08;;;10.10;99.90;;;;;;4994573;28;20082;-74
2022/08/02 04:04:06;;;;;;;0.10;0.10;;;10.20;99.90;;;;;;4994235;28;20467;-74
2022/08/02 04:06:32;;;;;;;0.43;0.43;;;10.30;99.90;;;;;;4994410;28;20588;-74
2022/08/02 04:08:57;;;;;;;0.00;0.00;;;10.30;99.90;;;;;;4994323;28;20049;-74
2022/08/02 04:11:32;;;;;;;0.40;0.35;;;10.40;99.90;;;;;;4994457;28;20049;-74
2022/08/02 04:14:06;;;;;;;0.20;0.15;;;10.40;99.90;;;;;;4994599;28;20043;-74
2022/08/02 04:16:43;;;;;;;0.20;0.10;;;10.60;99.90;;;;;;4994309;28;20108;-74
2022/08/02 04:19:15;;;;;;;0.60;0.45;;;10.60;99.90;;;;;;4994320;28;20054;-74
2022/08/02 04:21:44;;;;;;;2.40;1.15;;;10.70;99.90;;;;;;4994442;28;20054;-74
2022/08/02 04:24:11;;;;;;;0.13;0.13;;;10.80;99.90;;;;;;4994281;28;20100;-74
2022/08/02 04:26:40;;;;;;;0.45;0.30;;;10.80;99.90;;;;;;4994363;28;20045;-74
2022/08/02 04:29:06;;;;;;;0.70;0.28;;;10.80;99.90;;;;;;4993962;28;20054;-74
2022/08/02 04:31:32;;;;;;;0.38;0.38;;;10.90;99.90;;;;;;4994364;28;20373;-74
2022/08/02 04:33:58;;;;;;;0.35;0.32;;;11.00;99.90;;;;;;4993953;28;20053;-74
2022/08/02 04:36:23;;;;;;;0.00;0.00;;;11.00;99.90;;;;;;4994059;28;20050;-74
2022/08/02 04:38:49;;;;;;;2.75;0.65;;;11.10;99.90;;;;;;4994164;28;20042;-74
2022/08/02 04:41:15;;;;;;;0.95;0.57;;;11.10;99.90;;;;;;4993781;28;20137;-74
2022/08/02 04:43:41;;;;;;;0.17;0.10;;;11.20;99.90;;;;;;4993730;28;20077;-74
2022/08/02 04:46:06;;;;;;;2.17;0.90;;;11.10;99.90;;;;;;4993889;28;20039;-74
2022/08/02 04:48:32;;;;;;;0.00;0.00;;;11.20;99.90;;;;;;4992971;28;20093;-74
2022/08/02 04:50:58;;;;;;;0.88;0.32;;;11.20;99.90;;;;;;4993786;28;20396;-74
2022/08/02 04:53:24;;;;;;;0.45;0.40;;;11.30;99.90;;;;;;4993633;28;20608;-74
2022/08/02 04:55:50;;;;;;;2.58;1.40;;;11.40;99.90;;;;;;4993547;28;20042;-75
2022/08/02 04:58:15;;;;;;;0.20;0.20;;;11.50;99.90;;;;;;4993637;28;20116;-74
2022/08/02 05:00:41;;;;;;;0.28;0.25;;;11.60;99.90;;;;;;4993583;28;20481;-74
2022/08/02 05:03:07;;;;;;;0.52;0.47;;;11.90;99.90;;;;;;4993211;28;20097;-74
2022/08/02 05:05:32;;;;;;;1.45;0.80;;;11.90;99.90;;;;;;4993579;28;20503;-74
2022/08/02 05:07:58;;;;;;;1.42;0.55;;;12.30;99.90;;;;;;4993329;28;20121;-74
2022/08/02 05:10:24;;;;;;;0.15;0.15;;;12.20;99.90;;;;;;4993300;28;20042;-74
2022/08/02 05:12:49;;;;;;;0.00;0.00;;;12.20;99.90;;;;;;4993097;28;20038;-75
2022/08/02 05:15:17;;;;;;;1.30;0.30;;;12.20;99.90;;;;;;4993197;28;20074;-74
2022/08/02 05:17:43;;;;;;;0.00;0.00;;;12.30;99.90;;;;;;4993268;28;20113;-74
2022/08/02 05:20:12;;;;;;;0.10;0.10;;;12.40;99.90;;;;;;4993283;28;20042;-74
2022/08/02 05:22:38;;;;;;;0.38;0.38;;;12.50;99.90;;;;;;4993082;28;20109;-74
2022/08/02 05:25:04;;;;;;;1.10;0.30;;;12.60;99.90;;;;;;4992939;28;20508;-74
2022/08/02 05:27:31;;;;;;;0.20;0.20;;;12.70;99.90;;;;;;4993041;28;20069;-74
2022/08/02 05:29:57;;;;;;;0.25;0.25;;;12.90;99.90;;;;;;4992650;28;20112;-74
2022/08/02 05:32:23;;;;;;;0.05;0.05;;;13.00;99.90;;;;;;4993230;28;20716;-74
2022/08/02 05:34:48;;;;;;;0.22;0.22;;;13.20;99.90;;;;;;4992742;28;20054;-74
2022/08/02 05:37:14;;;;;;;0.35;0.30;;;13.40;99.90;;;;;;4992868;28;20045;-74
2022/08/02 05:39:39;;;;;;;0.90;0.52;;;13.50;99.90;;;;;;4992744;28;20047;-74
2022/08/02 05:42:05;;;;;;;0.00;0.00;;;13.80;99.90;;;;;;4992800;28;20521;-74
2022/08/02 05:44:31;;;;;;;7.78;0.52;;;14.40;99.90;;;;;;4992655;28;20078;-75
2022/08/02 05:46:56;;;;;;;0.20;0.20;;;15.20;99.90;;;;;;4992646;28;20046;-75
2022/08/02 05:49:22;;;;;;;0.00;0.00;;;16.10;99.90;;;;;;4992776;28;20080;-74
2022/08/02 05:52:09;;;;;;;0.73;0.28;;;16.90;99.90;;;;;;4992474;28;20508;-74
2022/08/02 05:54:38;;;;;;;0.52;0.47;;;17.30;99.90;;;;;;4992436;28;20052;-74
2022/08/02 05:57:29;;;;;;;0.85;0.10;;;17.20;99.90;;;;;;4992487;28;20078;-74
2022/08/02 06:00:08;;;;;;;4.28;1.27;;;17.80;99.90;;;;;;4991557;28;20046;-75
2022/08/02 06:02:42;;;;;;;1.08;0.45;;;18.70;99.90;;;;;;4992413;28;20121;-75
2022/08/02 06:05:14;;;;;;;0.00;0.00;;;19.10;99.90;;;;;;4992290;28;20157;-75
2022/08/02 06:07:42;;;;;;;0.60;0.28;;;19.50;99.90;;;;;;4992348;28;20050;-75
2022/08/02 06:10:12;;;;;;;0.20;0.17;;;19.80;99.90;;;;;;4992709;28;20073;-75
2022/08/02 06:12:49;;;;;;;0.22;0.22;;;20.10;99.90;;;;;;4992512;28;20092;-75
2022/08/02 06:15:17;;;;;;;0.17;0.15;;;20.50;99.90;;;;;;4992429;28;20054;-75
2022/08/02 06:17:43;;;;;;;1.05;0.88;;;20.50;99.90;;;;;;4992211;28;20046;-75
2022/08/02 06:20:11;;;;;;;0.65;0.52;;;20.80;99.90;;;;;;4992009;28;20053;-75
2022/08/02 06:22:42;;;;;;;0.43;0.32;;;20.80;99.90;;;;;;4992388;28;20077;-75
2022/08/02 06:25:10;;;;;;;1.08;0.75;;;20.60;99.90;;;;;;4992355;28;20042;-75
2022/08/02 06:27:36;;;;;;;0.00;0.00;;;20.80;99.90;;;;;;4992324;28;20057;-75
2022/08/02 06:30:03;;;;;;;0.08;0.08;;;20.90;99.90;;;;;;4992019;28;20046;-75
2022/08/02 06:32:32;;;;;;;0.10;0.10;;;21.30;99.90;;;;;;4991885;28;20042;-74
2022/08/02 06:34:57;;;;;;;0.25;0.25;;;21.40;95.40;;;;;;4992107;28;20050;-75
2022/08/02 06:37:23;;;;;;;0.40;0.32;;;21.50;99.60;;;;;;4992168;28;20057;-75
2022/08/02 06:39:55;;;;;;;0.20;0.20;;;22.00;99.90;;;;;;4992124;28;20051;-75
2022/08/02 06:42:30;;;;;;;0.10;0.10;;;22.40;94.60;;;;;;4992066;28;20465;-75
2022/08/02 06:44:56;;;;;;;4.90;0.63;;;22.80;95.70;;;;;;4992090;28;20047;-75
2022/08/02 06:47:21;;;;;;;0.70;0.40;;;23.00;92.00;;;;;;4992067;28;20050;-75
2022/08/02 06:49:47;;;;;;;0.30;0.17;;;23.00;85.10;;;;;;4991847;28;20539;-75
2022/08/02 06:52:13;;;;;;;0.20;0.10;;;22.90;93.30;;;;;;4992144;28;20057;-75
2022/08/02 06:54:41;;;;;;;0.10;0.10;;;23.30;79.00;;;;;;4990606;28;20064;-75
2022/08/02 06:57:08;;;;;;;0.32;0.32;;;23.10;87.40;;;;;;4992101;28;20042;-74
2022/08/02 06:59:34;;;;;;;0.00;0.00;;;23.30;70.50;;;;;;4992002;28;20460;-75
2022/08/02 07:02:01;;;;;;;0.55;0.55;;;23.20;69.80;;;;;;4992030;28;20054;-75
2022/08/02 07:04:28;;;;;;;1.65;0.88;;;23.30;67.20;;;;;;4991870;28;20046;-75
2022/08/02 07:06:54;;;;;;;0.32;0.32;;;23.60;66.20;;;;;;4991999;28;20402;-75
2022/08/02 07:09:19;;;;;;;0.00;0.00;;;24.30;64.30;;;;;;4990311;28;20054;-74
2022/08/02 07:11:45;;;;;;;0.20;0.10;;;24.00;56.90;;;;;;4994048;28;20481;-75
2022/08/02 07:14:11;;;;;;;0.10;0.08;;;24.10;59.30;;;;;;4995282;28;20053;-75
2022/08/02 07:16:36;;;;;;;0.28;0.28;;;24.30;60.80;;;;;;4995373;28;20039;-75
2022/08/02 07:19:02;;;;;;;0.20;0.20;;;24.80;55.40;;;;;;4995144;28;20093;-75
2022/08/02 07:21:28;;;;;;;0.10;0.10;;;25.10;53.10;;;;;;4995456;28;20046;-75
2022/08/02 07:23:53;;;;;;;0.65;0.55;;;25.20;36.70;;;;;;4995227;28;20045;-75
2022/08/02 07:26:19;;;;;;;1.10;0.40;;;24.90;29.80;;;;;;4995394;28;20070;-75
2022/08/02 07:28:44;;;;;;;0.00;0.00;;;24.70;25.70;;;;;;4995133;28;20053;-75
2022/08/02 07:31:10;;;;;;;0.25;0.25;;;23.90;36.00;;;;;;4994858;28;20042;-75
2022/08/02 07:33:36;;;;;;;0.05;0.05;;;23.40;51.10;;;;;;4994895;28;20488;-75
2022/08/02 07:36:02;;;;;;;0.10;0.10;;;23.10;50.60;;;;;;4995016;28;20050;-75
2022/08/02 07:38:27;;;;;;;0.00;0.00;;;23.10;59.20;;;;;;4993608;28;20481;-75
2022/08/02 07:40:53;;;;;;;0.43;0.30;;;23.50;58.00;;;;;;4994621;28;20052;-75
2022/08/02 07:43:19;;;;;;;0.10;0.10;;;24.20;51.50;;;;;;4994524;28;20058;-75
2022/08/02 07:45:44;;;;;;;0.00;0.00;;;24.70;43.40;;;;;;4994969;28;20117;-75
2022/08/02 07:48:10;;;;;;;0.20;0.20;;;25.10;28.90;;;;;;4994495;28;20035;-75
2022/08/02 07:50:35;;;;;;;0.63;0.15;;;25.20;19.70;;;;;;4994777;28;20045;-74
2022/08/02 07:53:01;;;;;;;0.00;0.00;;;25.10;19.40;;;;;;4994619;28;20112;-75
2022/08/02 07:55:27;;;;;;;0.32;0.25;;;25.10;13.30;;;;;;4994688;28;20125;-75
2022/08/02 07:57:52;;;;;;;0.10;0.10;;;25.40;13.90;;;;;;4994515;28;20074;-75
2022/08/02 08:00:18;;;;;;;0.20;0.20;;;25.60;11.90;;;;;;4994659;28;20084;-75
2022/08/02 08:02:44;;;;;;;0.63;0.32;;;25.70;13.60;;;;;;4994546;28;20053;-75
2022/08/02 08:05:11;;;;;;;0.70;0.32;;;26.20;12.80;;;;;;4993508;28;20053;-75
2022/08/02 08:07:36;;;;;;;0.00;0.00;;;26.80;5.60;;;;;;4994546;28;20505;-75
2022/08/02 08:10:04;;;;;;;0.32;0.25;;;27.10;1.90;;;;;;4994242;28;20133;-75
2022/08/02 08:12:29;;;;;;;0.00;0.00;;;27.10;1.00;;;;;;4993129;28;20113;-75
2022/08/02 08:14:55;;;;;;;0.00;0.00;;;26.60;1.00;;;;;;4994645;28;20804;-75
2022/08/02 08:17:21;;;;;;;1.52;0.82;;;26.40;1.00;;;;;;4993064;28;20077;-75
2022/08/02 08:19:47;;;;;;;1.65;1.17;;;26.30;1.00;;;;;;4994212;28;20397;-75
2022/08/02 08:22:12;;;;;;;0.32;0.20;;;26.10;1.00;;;;;;4993395;28;20047;-75
2022/08/02 08:24:38;;;;;;;0.00;0.00;;;26.20;1.00;;;;;;4992513;28;20496;-75
2022/08/02 08:27:04;;;;;;;0.00;0.00;;;26.60;1.00;;;;;;4993095;28;20104;-75
2022/08/02 08:29:30;;;;;;;0.35;0.35;;;26.80;1.00;;;;;;4993821;28;20576;-75
2022/08/02 08:31:55;;;;;;;0.00;0.00;;;26.90;1.00;;;;;;4994177;28;20093;-74
2022/08/02 08:34:22;;;;;;;0.00;0.00;;;26.50;1.00;;;;;;4994003;28;20051;-75
2022/08/02 08:36:49;;;;;;;0.10;0.10;;;26.30;1.00;;;;;;4994106;28;20038;-75
2022/08/02 08:39:14;;;;;;;1.20;0.38;;;26.20;1.00;;;;;;4993774;28;20043;-75
2022/08/02 08:41:42;;;;;;;0.90;0.32;;;26.20;1.00;;;;;;4993754;28;20089;-75
2022/08/02 08:44:08;;;;;;;0.00;0.00;;;26.40;1.00;;;;;;4993877;28;20089;-75
2022/08/02 08:46:36;;;;;;;0.00;0.00;;;26.60;1.00;;;;;;4993533;28;20519;-75
2022/08/02 08:49:07;;;;;;;0.32;0.25;;;26.80;1.00;;;;;;4993693;28;20056;-75
2022/08/02 08:51:40;;;;;;;0.10;0.08;;;26.60;1.00;;;;;;4993381;28;20479;-76
2022/08/02 08:54:08;;;;;;;0.10;0.10;;;26.90;1.00;;;;;;4993560;28;20042;-75
2022/08/02 08:56:35;;;;;;;0.20;0.13;;;26.40;1.00;;;;;;4993799;28;20052;-75
2022/08/02 08:59:02;;;;;;;0.00;0.00;;;26.80;1.00;;;;;;4993725;28;20043;-75
2022/08/02 09:01:28;;;;;;;0.35;0.35;;;27.10;1.00;;;;;;4993451;28;20363;-75
2022/08/02 09:03:54;;;;;;;0.10;0.10;;;27.50;1.00;;;;;;4993066;28;20519;-75
2022/08/02 09:06:19;;;;;;;0.20;0.10;;;27.90;1.00;;;;;;4993226;28;20077;-75
2022/08/02 09:08:45;;;;;;;0.57;0.47;;;27.70;1.00;;;;;;4993287;28;20042;-75
2022/08/02 09:11:13;;;;;;;2.13;0.35;;;27.70;1.00;;;;;;4993236;28;20057;-75
2022/08/02 09:13:54;;;;;;;0.17;0.10;;;28.10;1.00;;;;;;4993484;28;20046;-75
2022/08/02 09:16:34;;;;;;;0.00;0.00;;;28.10;1.00;;;;;;4993438;28;20125;-75
2022/08/02 09:19:17;;;;;;;0.30;0.10;;;27.90;1.00;;;;;;4992970;28;20068;-75
2022/08/02 09:21:43;;;;;;;0.80;0.22;;;28.00;1.00;;;;;;4993334;28;20085;-75
2022/08/02 09:24:22;;;;;;;0.10;0.10;;;28.30;1.00;;;;;;4993183;28;20049;-75
2022/08/02 09:26:49;;;;;;;0.00;0.00;;;28.20;1.00;;;;;;4993361;28;20050;-75
2022/08/02 09:29:16;;;;;;;0.25;0.25;;;28.20;1.00;;;;;;4993150;28;20038;-72
2022/08/02 09:31:42;;;;;;;0.00;0.00;;;28.10;1.00;;;;;;4993146;28;20034;-73
2022/08/02 09:34:09;;;;;;;0.20;0.20;;;28.00;1.00;;;;;;4992863;28;20042;-72
2022/08/02 09:36:46;;;;;;;0.00;0.00;;;28.20;1.00;;;;;;4993055;28;20050;-73
2022/08/02 09:39:14;;;;;;;0.35;0.25;;;28.10;1.00;;;;;;4992722;28;20042;-72
2022/08/02 09:41:43;;;;;;;0.10;0.10;;;28.40;1.00;;;;;;4991781;28;20045;-72
2022/08/02 09:44:12;;;;;;;2.20;0.75;;;28.40;1.00;;;;;;4992533;28;20038;-73
2022/08/02 09:46:41;;;;;;;0.10;0.10;;;28.70;1.00;;;;;;4974866;28;20057;-72
2022/08/02 09:49:16;;;;;;;0.17;0.13;;;28.70;1.00;;;;;;4992589;28;20046;-73
2022/08/02 09:51:45;;;;;;;0.13;0.13;;;28.30;1.00;;;;;;4992549;28;20073;-72
2022/08/02 09:54:16;;;;;;;0.52;0.35;;;28.20;1.00;;;;;;4992351;28;20113;-72
2022/08/02 09:56:56;;;;;;;0.00;0.00;;;28.10;1.00;;;;;;4992389;28;20100;-73
2022/08/02 09:59:23;;;;;;;0.20;0.20;;;28.00;1.00;;;;;;4992254;28;20057;-72
2022/08/02 10:01:50;;;;;;;0.47;0.22;;;28.10;1.00;;;;;;4992323;28;20056;-72
2022/08/02 10:04:19;;;;;;;0.10;0.10;;;28.20;1.00;;;;;;4991912;28;20541;-73
2022/08/02 10:06:45;;;;;;;0.10;0.10;;;28.00;1.00;;;;;;4990907;28;20053;-72
2022/08/02 10:09:12;;;;;;;4.65;1.30;;;28.00;1.00;;;;;;4991988;28;20046;-73
2022/08/02 10:11:38;;;;;;;0.15;0.15;;;28.10;1.00;;;;;;4992402;28;20121;-72
2022/08/02 10:14:06;;;;;;;1.25;0.40;;;28.20;1.00;;;;;;4992341;28;20057;-75
2022/08/02 10:16:38;;;;;;;0.63;0.47;;;28.10;1.00;;;;;;4992108;28;20074;-75
2022/08/02 10:19:04;;;;;;;0.03;0.00;;;28.00;1.00;;;;;;4992232;28;20125;-75
2022/08/02 10:21:45;;;;;;;0.22;0.22;;;28.10;1.00;;;;;;4992252;28;20401;-74
2022/08/02 10:24:13;;;;;;;2.35;0.40;;;28.40;1.00;;;;;;4992338;28;20038;-75
2022/08/02 10:26:42;;;;;;;0.28;0.10;;;28.40;1.00;;;;;;4992139;28;20046;-75
2022/08/02 10:29:09;;;;;;;0.25;0.20;;;28.00;1.00;;;;;;4992310;28;20046;-75
2022/08/02 10:31:42;;;;;;;1.33;0.63;;;28.10;1.00;;;;;;4992066;28;20117;-75
2022/08/02 10:34:16;;;;;;;0.00;0.00;;;27.90;1.00;;;;;;4991683;28;20081;-75
2022/08/02 10:36:44;;;;;;;0.00;0.00;;;28.20;1.00;;;;;;4992257;28;20058;-75
2022/08/02 10:39:10;;;;;;;0.25;0.25;;;28.30;1.00;;;;;;4992075;28;20050;-74
2022/08/02 10:41:40;;;;;;;0.85;0.52;;;28.20;1.00;;;;;;4992081;28;20045;-74
2022/08/02 10:44:06;;;;;;;0.08;0.08;;;28.40;1.00;;;;;;4992146;28;20042;-75
2022/08/02 10:46:33;;;;;;;0.10;0.10;;;28.50;1.00;;;;;;4994123;28;20262;-75
2022/08/02 10:49:19;;;;;;;0.63;0.38;;;28.50;1.00;;;;;;4995900;28;20409;-75
2022/08/02 10:51:53;;;;;;;6.32;1.02;;;28.50;1.00;;;;;;4996046;28;20398;-75
2022/08/02 10:54:21;;;;;;;0.00;0.00;;;28.60;1.00;;;;;;4995740;28;20050;-72
2022/08/02 10:56:49;;;;;;;0.65;0.47;;;28.80;1.00;;;;;;4995900;28;20082;-72
2022/08/02 10:59:27;;;;;;;0.10;0.10;;;29.20;1.00;;;;;;4995697;28;20054;-72
2022/08/02 11:02:01;;;;;;;0.20;0.17;;;29.20;1.00;;;;;;4995849;28;20101;-72
2022/08/02 11:04:35;;;;;;;0.73;0.43;;;29.40;1.00;;;;;;4995513;28;20095;-72
2022/08/02 11:07:16;;;;;;;0.60;0.25;;;29.60;1.00;;;;;;4995366;28;20505;-73
2022/08/02 11:09:44;;;;;;;0.00;0.00;;;30.00;1.00;;;;;;4995479;28;20081;-72
2022/08/02 11:12:12;;;;;;;0.15;0.13;;;30.10;1.00;;;;;;4995384;28;20110;-72
2022/08/02 11:14:43;;;;;;;0.47;0.30;;;30.20;1.00;;;;;;4995668;28;20046;-72
2022/08/02 11:17:12;;;;;;;0.08;0.00;;;30.40;1.00;;;;;;4978533;28;20046;-72
2022/08/02 11:20:11;;;;;;;0.10;0.10;;;30.50;1.00;;;;;;4995457;28;20070;-72
2022/08/02 11:22:41;;;;;;;0.00;0.00;;;30.90;1.00;;;;;;4995484;28;20073;-75
2022/08/02 11:25:31;;;;;;;0.00;0.00;;;31.00;1.00;;;;;;4994451;28;20078;-75
2022/08/02 11:27:59;;;;;;;0.10;0.10;;;31.00;1.00;;;;;;4990291;28;20089;-75
2022/08/02 11:30:26;;;;;;;0.22;0.22;;;30.80;1.00;;;;;;4994014;28;20563;-75
2022/08/02 11:32:57;;;;;;;1.20;0.25;;;30.70;1.00;;;;;;4994136;28;20047;-75
2022/08/02 11:35:30;;;;;;;3.75;0.30;;;30.90;1.00;;;;;;4995263;28;20113;-74
2022/08/02 11:37:57;;;;;;;0.98;0.43;;;31.10;1.00;;;;;;4995210;28;20614;-75
2022/08/02 11:40:23;;;;;;;0.03;0.00;;;31.00;1.00;;;;;;4995244;28;20050;-75
2022/08/02 11:42:49;;;;;;;0.20;0.20;;;30.90;1.00;;;;;;4994949;28;20049;-75
2022/08/02 11:45:16;;;;;;;0.10;0.10;;;30.90;1.00;;;;;;4995321;28;20050;-74
2022/08/02 11:47:46;;;;;;;3.80;0.65;;;30.80;1.00;;;;;;4994956;28;20109;-75
2022/08/02 11:50:11;;;;;;;0.00;0.00;;;30.60;1.00;;;;;;4995074;28;20053;-74
2022/08/02 11:52:37;;;;;;;2.63;1.00;;;30.80;1.00;;;;;;4994997;28;20038;-75
2022/08/02 11:55:06;;;;;;;0.10;0.10;;;31.20;1.00;;;;;;4995026;28;20038;-75
2022/08/02 11:57:32;;;;;;;0.13;0.13;;;31.20;1.00;;;;;;4994882;28;20043;-73
2022/08/02 11:59:58;;;;;;;1.15;0.47;;;31.10;1.00;;;;;;4995113;28;20043;-73
2022/08/02 12:02:30;;;;;;;0.47;0.32;;;30.90;1.00;;;;;;4994849;28;20046;-73
2022/08/02 12:04:59;;;;;;;0.75;0.57;;;30.90;1.00;;;;;;4994756;28;20177;-72
2022/08/02 12:07:31;;;;;;;0.47;0.30;;;31.70;1.00;;;;;;4994728;28;20516;-73
2022/08/02 12:10:03;;;;;;;1.40;0.77;;;32.10;1.00;;;;;;4994686;28;20042;-72
2022/08/02 12:12:28;;;;;;;0.00;0.00;;;31.90;1.00;;;;;;4994607;28;20046;-74
2022/08/02 12:14:54;;;;;;;0.08;0.00;;;31.90;1.00;;;;;;4994432;28;20404;-74
2022/08/02 12:20:10;;;;;;;0.13;0.13;;;31.70;1.00;;;;;;4994489;28;20050;-74
2022/08/02 12:22:36;;;;;;;1.00;0.55;;;31.50;1.00;;;;;;4994273;28;20089;-74
2022/08/02 12:25:19;;;;;;;0.30;0.28;;;31.50;1.00;;;;;;4994558;28;20050;-74
2022/08/02 12:27:44;;;;;;;0.00;0.00;;;31.50;1.00;;;;;;4994350;28;20481;-74
2022/08/02 12:30:16;;;;;;;0.17;0.17;;;31.60;1.00;;;;;;4994123;28;20117;-74
2022/08/02 12:32:43;;;;;;;0.10;0.10;;;31.20;1.00;;;;;;4994733;28;20166;-74
2022/08/02 12:35:16;;;;;;;0.00;0.00;;;30.90;1.00;;;;;;4994065;28;20050;-74
2022/08/02 12:37:45;;;;;;;0.05;0.05;;;30.50;1.00;;;;;;4994326;28;20052;-74
2022/08/02 12:40:21;;;;;;;0.75;0.20;;;30.10;1.00;;;;;;4994198;28;20473;-74
2022/08/02 12:42:58;;;;;;;1.10;0.50;;;29.90;1.00;;;;;;4993920;28;20726;-74
2022/08/02 12:45:25;;;;;;;0.50;0.28;;;29.80;1.00;;;;;;4993981;28;20050;-74
2022/08/02 12:47:54;;;;;;;0.03;0.03;;;29.80;1.00;;;;;;4994045;28;20053;-74
2022/08/02 12:50:33;;;;;;;0.15;0.13;;;30.10;1.00;;;;;;4994018;28;20478;-74
2022/08/02 12:53:05;;;;;;;0.15;0.15;;;30.50;1.00;;;;;;4993773;28;20053;-74
2022/08/02 12:55:31;;;;;;;0.00;0.00;;;30.90;1.00;;;;;;4993823;28;20042;-74
2022/08/02 12:58:01;;;;;;;0.70;0.52;;;30.80;1.00;;;;;;4993429;28;20049;-74
2022/08/02 13:00:37;;;;;;;0.75;0.40;;;30.70;1.00;;;;;;4993731;28;20038;-74
2022/08/02 13:03:04;;;;;;;0.28;0.20;;;30.30;1.00;;;;;;4993521;28;20404;-74